Time;durP1;ratioP1;P1;durP2;ratioP2;P2;SDS_P1;SDS_P2;PMS_P1;PMS_P2;Temp;Humidity;BMP_temperature;BMP_pressure;BME280_temperature;BME280_humidity;BME280_pressure;Samples;Min_cycle;Max_cycle;Signal;HPM_P1;HPM_P2
2021/07/15 00:00:53;;;;;;;6.80;2.30;;;17.80;99.90;;;;;;5065620;28;20495;-86
2021/07/15 00:03:22;;;;;;;7.70;2.70;;;17.90;99.90;;;;;;5067689;28;20433;-87
2021/07/15 00:05:50;;;;;;;7.00;2.03;;;17.90;99.90;;;;;;5066175;28;20438;-87
2021/07/15 00:08:19;;;;;;;6.70;2.07;;;17.90;99.90;;;;;;5047903;28;20528;-87
2021/07/15 00:10:49;;;;;;;6.27;1.93;;;17.90;99.90;;;;;;5047559;28;21009;-84
2021/07/15 00:13:16;;;;;;;7.50;2.20;;;17.90;99.90;;;;;;5049336;28;20464;-85
2021/07/15 00:15:45;;;;;;;6.70;2.80;;;18.00;99.90;;;;;;5047099;28;20461;-85
2021/07/15 00:18:15;;;;;;;7.37;2.20;;;18.00;99.90;;;;;;5050301;28;20483;-86
2021/07/15 00:20:44;;;;;;;7.40;2.80;;;18.00;99.90;;;;;;5047127;28;20515;-86
2021/07/15 00:23:12;;;;;;;7.53;2.43;;;18.00;99.90;;;;;;5046099;28;20472;-85
2021/07/15 00:25:41;;;;;;;9.20;2.83;;;18.00;99.90;;;;;;5050555;28;20914;-85
2021/07/15 00:28:08;;;;;;;6.60;2.50;;;18.10;99.90;;;;;;5066835;28;20436;-84
2021/07/15 00:30:37;;;;;;;7.10;2.50;;;18.00;99.90;;;;;;5064392;28;20491;-85
2021/07/15 00:33:04;;;;;;;8.90;3.00;;;18.10;99.90;;;;;;5065014;28;20484;-89
2021/07/15 00:35:34;;;;;;;6.60;2.50;;;18.10;99.90;;;;;;5066691;28;20472;-87
2021/07/15 00:38:01;;;;;;;6.40;2.10;;;18.10;99.90;;;;;;5066807;28;20524;-86
2021/07/15 00:40:28;;;;;;;6.83;2.10;;;18.20;99.90;;;;;;5065025;28;20537;-86
2021/07/15 00:42:55;;;;;;;6.50;2.07;;;18.10;99.90;;;;;;5047600;28;20975;-88
2021/07/15 00:45:22;;;;;;;7.00;2.23;;;18.10;99.90;;;;;;5046601;28;20461;-87
2021/07/15 00:47:49;;;;;;;6.33;2.27;;;18.10;99.90;;;;;;5058650;28;20515;-86
2021/07/15 00:50:18;;;;;;;8.20;2.20;;;18.10;99.90;;;;;;5060084;28;20474;-85
2021/07/15 00:52:47;;;;;;;7.17;2.87;;;18.10;99.90;;;;;;5035211;28;20461;-85
2021/07/15 00:55:18;;;;;;;6.83;2.03;;;18.10;99.90;;;;;;5035230;28;20515;-86
2021/07/15 00:57:46;;;;;;;6.90;2.30;;;18.10;99.90;;;;;;5038623;28;20477;-86
2021/07/15 01:00:15;;;;;;;8.73;3.07;;;18.20;99.90;;;;;;5040114;28;20573;-85
2021/07/15 01:02:42;;;;;;;6.80;2.60;;;18.20;99.90;;;;;;5043155;28;20461;-87
2021/07/15 01:05:11;;;;;;;6.57;2.60;;;18.10;99.90;;;;;;5047396;28;20460;-88
2021/07/15 01:07:38;;;;;;;6.37;2.23;;;18.10;99.90;;;;;;5048123;28;20536;-86
2021/07/15 01:10:09;;;;;;;7.20;2.93;;;18.20;99.90;;;;;;5062018;28;20516;-87
2021/07/15 01:12:51;;;;;;;6.50;2.80;;;18.20;99.90;;;;;;5066132;28;21058;-89
2021/07/15 01:15:22;;;;;;;7.60;3.10;;;18.20;99.90;;;;;;5069501;28;20965;-86
2021/07/15 01:17:58;;;;;;;7.07;2.50;;;18.10;99.90;;;;;;5073997;28;20466;-86
2021/07/15 01:20:55;;;;;;;8.40;3.10;;;18.10;99.90;;;;;;5074954;28;20502;-86
2021/07/15 01:23:54;;;;;;;6.97;2.93;;;18.20;99.90;;;;;;5056999;28;20444;-87
2021/07/15 01:26:48;;;;;;;6.90;2.60;;;18.20;99.90;;;;;;5065454;28;20459;-88
2021/07/15 01:29:19;;;;;;;8.27;2.97;;;18.20;99.90;;;;;;5076578;28;20579;-88
2021/07/15 01:31:51;;;;;;;7.53;3.00;;;18.20;99.90;;;;;;5070704;28;20479;-89
2021/07/15 01:34:20;;;;;;;8.10;2.83;;;18.10;99.90;;;;;;5068914;28;20432;-88
2021/07/15 01:36:49;;;;;;;7.10;2.43;;;18.10;99.90;;;;;;5051270;28;20445;-89
2021/07/15 01:39:17;;;;;;;7.83;2.70;;;18.20;99.90;;;;;;5050402;28;20556;-87
2021/07/15 01:41:47;;;;;;;7.03;3.00;;;18.20;99.90;;;;;;5052850;28;20532;-87
2021/07/15 01:44:18;;;;;;;8.00;3.00;;;18.20;99.90;;;;;;5050019;28;20437;-89
2021/07/15 01:46:47;;;;;;;7.10;2.60;;;18.20;99.90;;;;;;5044911;28;20482;-89
2021/07/15 01:49:15;;;;;;;10.00;2.90;;;18.20;99.90;;;;;;5043946;28;20543;-89
2021/07/15 01:51:43;;;;;;;6.50;2.87;;;18.10;99.90;;;;;;5052761;28;20478;-86
2021/07/15 01:54:10;;;;;;;6.33;2.57;;;18.10;99.90;;;;;;5064798;28;20523;-89
2021/07/15 01:56:40;;;;;;;6.50;2.47;;;18.10;99.90;;;;;;5069480;28;20507;-87
2021/07/15 01:59:08;;;;;;;8.60;2.97;;;18.10;99.90;;;;;;5046480;28;20556;-87
2021/07/15 02:01:37;;;;;;;6.83;2.33;;;18.00;99.90;;;;;;5055081;28;20995;-87
2021/07/15 02:04:07;;;;;;;6.80;2.67;;;18.00;99.90;;;;;;5044382;28;20487;-87
2021/07/15 02:06:36;;;;;;;7.07;3.10;;;18.00;99.90;;;;;;5054180;28;20450;-88
2021/07/15 02:09:06;;;;;;;6.70;2.80;;;18.00;99.90;;;;;;5069099;28;20512;-87
2021/07/15 02:11:34;;;;;;;8.40;3.03;;;18.00;99.90;;;;;;5069780;28;21030;-88
2021/07/15 02:14:04;;;;;;;8.07;3.50;;;18.00;99.90;;;;;;5099040;22;20491;-87
2021/07/15 02:16:33;;;;;;;8.00;3.23;;;18.10;99.90;;;;;;5094402;28;20537;-85
2021/07/15 02:19:01;;;;;;;8.53;3.33;;;18.10;99.90;;;;;;5093025;28;20845;-86
2021/07/15 02:21:31;;;;;;;7.40;2.90;;;18.10;99.90;;;;;;5092827;28;20478;-86
2021/07/15 02:24:00;;;;;;;10.13;3.40;;;18.10;99.90;;;;;;5085658;28;20532;-84
2021/07/15 02:26:27;;;;;;;8.57;3.43;;;18.10;99.90;;;;;;5055182;28;20995;-85
2021/07/15 02:28:55;;;;;;;7.50;3.57;;;18.10;99.90;;;;;;5054529;28;20448;-85
2021/07/15 02:31:29;;;;;;;7.60;3.17;;;18.10;99.90;;;;;;5071499;28;21065;-85
2021/07/15 02:33:58;;;;;;;7.00;3.30;;;18.20;99.90;;;;;;5077855;28;20466;-85
2021/07/15 02:36:27;;;;;;;8.67;4.23;;;18.10;99.90;;;;;;5074098;28;20951;-86
2021/07/15 02:38:59;;;;;;;7.80;3.80;;;18.20;99.90;;;;;;5073652;28;20463;-85
2021/07/15 02:41:26;;;;;;;6.93;3.17;;;18.20;99.90;;;;;;5064827;28;20484;-85
2021/07/15 02:43:53;;;;;;;8.60;3.97;;;18.20;99.90;;;;;;5054011;28;20476;-85
2021/07/15 02:46:20;;;;;;;7.67;3.63;;;18.20;99.90;;;;;;5053726;28;20452;-85
2021/07/15 02:48:47;;;;;;;11.73;3.93;;;18.20;99.90;;;;;;5053103;28;20462;-85
2021/07/15 02:51:14;;;;;;;7.50;3.43;;;18.20;99.90;;;;;;5051685;28;20454;-86
2021/07/15 02:53:41;;;;;;;7.57;4.03;;;18.20;99.90;;;;;;5053805;28;20478;-85
2021/07/15 02:56:15;;;;;;;8.53;3.60;;;18.20;99.90;;;;;;5057545;28;20447;-84
2021/07/15 02:58:58;;;;;;;9.43;3.70;;;18.20;99.90;;;;;;5073400;28;20832;-86
2021/07/15 03:01:28;;;;;;;7.20;3.27;;;18.20;99.90;;;;;;5061065;28;20492;-85
2021/07/15 03:04:01;;;;;;;7.47;3.50;;;18.20;99.90;;;;;;5071966;28;20497;-84
2021/07/15 03:06:34;;;;;;;7.50;4.13;;;18.20;99.90;;;;;;5068971;28;20448;-86
2021/07/15 03:09:05;;;;;;;8.07;4.23;;;18.10;99.90;;;;;;5065650;28;20451;-85
2021/07/15 03:11:37;;;;;;;7.40;3.53;;;18.10;99.90;;;;;;5071259;28;20461;-86
2021/07/15 03:14:06;;;;;;;8.90;4.20;;;18.10;99.90;;;;;;5053024;28;20483;-85
2021/07/15 03:16:35;;;;;;;7.57;3.60;;;18.10;99.90;;;;;;5053801;28;20467;-86
2021/07/15 03:19:04;;;;;;;8.50;4.23;;;18.10;99.90;;;;;;5064368;28;20477;-85
2021/07/15 03:21:32;;;;;;;11.00;4.10;;;18.10;99.90;;;;;;5072773;28;20600;-86
2021/07/15 03:24:02;;;;;;;8.10;4.33;;;18.00;99.90;;;;;;5072258;28;20475;-86
2021/07/15 03:26:30;;;;;;;9.30;4.63;;;18.00;99.90;;;;;;5072740;28;20549;-85
2021/07/15 03:29:00;;;;;;;11.13;5.40;;;18.10;99.90;;;;;;5072006;28;20821;-85
2021/07/15 03:31:29;;;;;;;9.30;4.20;;;18.00;99.90;;;;;;5071752;28;20454;-85
2021/07/15 03:33:56;;;;;;;9.07;4.60;;;18.10;99.90;;;;;;5072628;28;20558;-86
2021/07/15 03:36:23;;;;;;;8.13;4.23;;;18.10;99.90;;;;;;5071962;28;20834;-86
2021/07/15 03:38:51;;;;;;;9.73;5.27;;;18.10;99.90;;;;;;5072165;28;20455;-86
2021/07/15 03:41:18;;;;;;;9.07;5.13;;;18.20;99.90;;;;;;5065079;28;20565;-85
2021/07/15 03:43:46;;;;;;;10.30;5.50;;;18.20;99.90;;;;;;5052572;28;20474;-85
2021/07/15 03:46:15;;;;;;;9.33;5.00;;;18.20;99.90;;;;;;5053064;28;20474;-85
2021/07/15 03:48:43;;;;;;;8.83;4.63;;;18.20;99.90;;;;;;5055892;28;20454;-86
2021/07/15 03:51:11;;;;;;;8.77;5.00;;;18.20;99.90;;;;;;5061729;28;20477;-85
2021/07/15 03:53:39;;;;;;;8.93;5.27;;;18.30;99.90;;;;;;5071945;28;20475;-86
2021/07/15 03:56:10;;;;;;;8.77;4.87;;;18.30;99.90;;;;;;5054181;28;20475;-85
2021/07/15 03:58:41;;;;;;;9.17;4.50;;;18.30;99.90;;;;;;5051877;28;20972;-86
2021/07/15 04:01:09;;;;;;;9.30;5.00;;;18.30;99.90;;;;;;5060977;28;20544;-86
2021/07/15 04:03:40;;;;;;;9.10;4.90;;;18.30;99.90;;;;;;5070007;28;20477;-85
2021/07/15 04:06:09;;;;;;;7.30;3.80;;;18.30;99.90;;;;;;5067655;28;20462;-85
2021/07/15 04:08:39;;;;;;;10.80;4.57;;;18.30;99.90;;;;;;5067513;28;20448;-85
2021/07/15 04:11:07;;;;;;;8.60;4.50;;;18.30;99.90;;;;;;5063542;28;20878;-85
2021/07/15 04:13:35;;;;;;;7.87;4.30;;;18.30;99.90;;;;;;5072584;28;21081;-85
2021/07/15 04:16:30;;;;;;;9.73;5.00;;;18.30;99.90;;;;;;5067437;28;20505;-85
2021/07/15 04:19:02;;;;;;;8.73;4.40;;;18.30;99.90;;;;;;5068398;28;20461;-84
2021/07/15 04:21:29;;;;;;;10.73;4.30;;;18.30;99.90;;;;;;5072870;28;20485;-85
2021/07/15 04:23:58;;;;;;;8.57;3.60;;;18.30;99.90;;;;;;5073577;28;20475;-85
2021/07/15 04:26:25;;;;;;;7.47;4.13;;;18.40;99.90;;;;;;5067406;28;21030;-85
2021/07/15 04:28:53;;;;;;;8.07;4.23;;;18.40;99.90;;;;;;5056997;28;20973;-86
2021/07/15 04:31:29;;;;;;;7.90;3.77;;;18.40;99.90;;;;;;5063347;28;20451;-84
2021/07/15 04:33:59;;;;;;;11.80;3.63;;;18.40;99.90;;;;;;5076599;28;20475;-83
2021/07/15 04:36:26;;;;;;;7.53;4.03;;;18.50;99.90;;;;;;5064447;28;20516;-83
2021/07/15 04:38:53;;;;;;;7.30;3.20;;;18.50;99.90;;;;;;5057445;28;21494;-83
2021/07/15 04:41:21;;;;;;;8.10;3.40;;;18.50;99.90;;;;;;5072705;28;20483;-82
2021/07/15 04:43:49;;;;;;;7.57;3.57;;;18.50;99.90;;;;;;5076167;28;20467;-83
2021/07/15 04:46:19;;;;;;;7.43;3.20;;;18.50;99.90;;;;;;5084089;28;20443;-82
2021/07/15 04:48:46;;;;;;;8.03;3.47;;;18.60;99.90;;;;;;5078313;28;20947;-83
2021/07/15 04:51:16;;;;;;;7.30;3.33;;;18.60;99.90;;;;;;5075614;28;20546;-83
2021/07/15 04:53:45;;;;;;;6.30;2.90;;;18.60;99.90;;;;;;5073842;28;20863;-83
2021/07/15 04:56:12;;;;;;;13.40;3.30;;;;;;;;;;5062831;28;20462;-86
2021/07/15 04:58:41;;;;;;;7.80;4.07;;;18.50;99.90;;;;;;5077575;28;20443;-87
2021/07/15 05:01:09;;;;;;;6.83;2.83;;;18.60;99.90;;;;;;5079089;28;20486;-87
2021/07/15 05:03:37;;;;;;;8.00;3.17;;;18.60;99.90;;;;;;5079569;28;20554;-88
2021/07/15 05:06:06;;;;;;;7.10;3.27;;;18.70;99.90;;;;;;5064806;28;20903;-86
2021/07/15 05:08:34;;;;;;;7.00;3.37;;;18.70;99.90;;;;;;5070246;28;20451;-86
2021/07/15 05:11:01;;;;;;;6.70;2.97;;;18.70;99.90;;;;;;5082895;28;20538;-85
2021/07/15 05:13:28;;;;;;;8.03;3.23;;;18.70;99.90;;;;;;5074741;28;20578;-86
2021/07/15 05:15:55;;;;;;;7.83;2.73;;;18.80;99.90;;;;;;5073317;28;20454;-86
2021/07/15 05:18:22;;;;;;;6.60;2.67;;;18.80;99.90;;;;;;5074113;28;20439;-86
2021/07/15 05:20:50;;;;;;;6.20;2.17;;;18.80;99.90;;;;;;5052582;28;20555;-86
2021/07/15 05:23:18;;;;;;;6.23;2.47;;;18.80;99.90;;;;;;5053784;28;20474;-85
2021/07/15 05:25:47;;;;;;;7.30;2.50;;;18.90;99.90;;;;;;5064338;28;20466;-86
2021/07/15 05:28:13;;;;;;;6.30;2.40;;;18.90;99.90;;;;;;5056548;28;20459;-86
2021/07/15 05:30:41;;;;;;;6.43;2.57;;;19.00;99.90;;;;;;5053904;28;20530;-86
2021/07/15 05:33:07;;;;;;;7.87;2.67;;;19.10;99.90;;;;;;5070085;28;20448;-86
2021/07/15 05:35:34;;;;;;;6.93;2.40;;;19.10;99.90;;;;;;5064046;28;20447;-86
2021/07/15 05:38:04;;;;;;;6.67;2.60;;;19.20;99.90;;;;;;5064116;28;20448;-87
2021/07/15 05:40:31;;;;;;;7.43;2.47;;;19.20;99.90;;;;;;5057129;28;20482;-87
2021/07/15 05:43:00;;;;;;;6.37;2.07;;;19.20;99.90;;;;;;5074403;28;20530;-86
2021/07/15 05:45:27;;;;;;;7.03;2.23;;;19.20;99.90;;;;;;5056536;28;20456;-86
2021/07/15 05:47:56;;;;;;;6.17;2.20;;;19.20;99.90;;;;;;5055512;28;20452;-86
2021/07/15 05:50:23;;;;;;;7.40;2.07;;;19.20;99.90;;;;;;5058096;28;20454;-84
2021/07/15 05:52:50;;;;;;;6.40;2.27;;;19.30;99.90;;;;;;5064360;28;20515;-83
2021/07/15 05:55:18;;;;;;;7.70;2.93;;;19.30;99.90;;;;;;5059843;28;20535;-85
2021/07/15 05:57:44;;;;;;;6.40;2.10;;;19.30;99.90;;;;;;5066272;28;20439;-83
2021/07/15 06:00:14;;;;;;;7.33;2.07;;;19.40;99.90;;;;;;5073115;28;20447;-86
2021/07/15 06:02:40;;;;;;;6.03;1.90;;;19.30;99.90;;;;;;5075593;28;20840;-85
2021/07/15 06:05:08;;;;;;;7.33;2.07;;;19.40;99.90;;;;;;5064622;28;20488;-84
2021/07/15 06:07:37;;;;;;;7.63;2.00;;;19.30;99.90;;;;;;5074532;28;20449;-84
2021/07/15 06:10:06;;;;;;;6.33;2.00;;;19.40;99.90;;;;;;5072942;28;20451;-84
2021/07/15 06:12:33;;;;;;;6.70;2.37;;;19.40;99.90;;;;;;5086899;28;20566;-85
2021/07/15 06:15:02;;;;;;;7.97;2.53;;;19.40;99.90;;;;;;5072758;28;21009;-85
2021/07/15 06:17:30;;;;;;;7.13;2.57;;;19.40;99.90;;;;;;5074851;28;20446;-85
2021/07/15 06:19:57;;;;;;;8.17;2.40;;;19.30;99.90;;;;;;5074676;28;20447;-86
2021/07/15 06:22:23;;;;;;;7.37;2.60;;;19.30;99.90;;;;;;5076376;28;20479;-85
2021/07/15 06:24:50;;;;;;;8.40;2.10;;;19.40;99.90;;;;;;5075314;28;20865;-85
2021/07/15 06:27:17;;;;;;;5.80;1.47;;;19.30;99.90;;;;;;5075706;28;20538;-84
2021/07/15 06:29:44;;;;;;;6.53;2.27;;;19.30;99.90;;;;;;5055163;28;20559;-84
2021/07/15 06:32:11;;;;;;;6.70;2.00;;;19.30;99.90;;;;;;5073485;28;20477;-85
2021/07/15 06:34:39;;;;;;;6.10;1.80;;;19.30;99.90;;;;;;5070160;28;20473;-84
2021/07/15 06:37:09;;;;;;;5.90;1.87;;;19.30;99.90;;;;;;5066135;28;20462;-85
2021/07/15 06:39:37;;;;;;;6.10;1.80;;;19.30;99.90;;;;;;5064909;28;20844;-85
2021/07/15 06:42:05;;;;;;;5.83;1.77;;;19.40;99.90;;;;;;5055798;28;20483;-85
2021/07/15 06:44:32;;;;;;;6.20;1.77;;;19.40;99.90;;;;;;5066494;28;20986;-84
2021/07/15 06:46:59;;;;;;;6.53;1.83;;;19.40;99.90;;;;;;5061454;28;20451;-85
2021/07/15 06:49:26;;;;;;;6.87;2.10;;;19.40;99.90;;;;;;5076484;28;20447;-85
2021/07/15 06:51:57;;;;;;;6.40;2.30;;;19.40;99.90;;;;;;5083943;28;20872;-85
2021/07/15 06:54:24;;;;;;;8.70;2.50;;;19.40;99.90;;;;;;5072350;28;20475;-85
2021/07/15 06:56:52;;;;;;;7.33;2.07;;;19.40;99.90;;;;;;5072949;28;20599;-86
2021/07/15 06:59:19;;;;;;;5.83;1.90;;;19.40;99.90;;;;;;5072796;28;20958;-85
2021/07/15 07:01:46;;;;;;;7.60;2.57;;;19.40;99.90;;;;;;5073784;28;20517;-84
2021/07/15 07:04:13;;;;;;;8.60;2.10;;;19.40;99.90;;;;;;5075243;28;20469;-85
2021/07/15 07:06:40;;;;;;;6.33;1.97;;;19.40;99.90;;;;;;5078192;28;20560;-85
2021/07/15 07:09:08;;;;;;;6.00;1.97;;;19.50;99.90;;;;;;5073717;28;20453;-84
2021/07/15 07:11:35;;;;;;;6.40;2.00;;;19.50;99.90;;;;;;5064308;28;20450;-85
2021/07/15 07:14:02;;;;;;;6.83;2.30;;;19.50;99.90;;;;;;5063376;28;20916;-86
2021/07/15 07:16:29;;;;;;;7.40;2.17;;;19.60;99.90;;;;;;5071375;28;20459;-85
2021/07/15 07:18:56;;;;;;;7.70;2.27;;;19.60;99.90;;;;;;5073110;28;20451;-84
2021/07/15 07:21:23;;;;;;;7.50;1.80;;;19.60;99.90;;;;;;5072840;28;20999;-85
2021/07/15 07:23:50;;;;;;;6.27;2.03;;;19.60;99.90;;;;;;5072409;28;20456;-85
2021/07/15 07:26:18;;;;;;;7.70;1.90;;;19.60;99.90;;;;;;5073317;28;20462;-85
2021/07/15 07:28:45;;;;;;;6.40;2.03;;;19.60;99.90;;;;;;5073359;28;20451;-85
2021/07/15 07:31:12;;;;;;;7.57;1.53;;;19.70;99.90;;;;;;5059074;28;20455;-84
2021/07/15 07:33:40;;;;;;;5.83;1.60;;;19.70;99.90;;;;;;5071390;28;20466;-85
2021/07/15 07:36:07;;;;;;;9.30;1.80;;;19.70;99.90;;;;;;5067885;28;20494;-85
2021/07/15 07:38:34;;;;;;;6.00;1.60;;;19.70;99.90;;;;;;5064461;28;20451;-85
2021/07/15 07:41:01;;;;;;;8.10;2.33;;;19.80;99.90;;;;;;5072799;28;20542;-84
2021/07/15 07:43:29;;;;;;;9.87;3.83;;;19.90;99.90;;;;;;5064218;28;20475;-85
2021/07/15 07:45:56;;;;;;;6.70;1.80;;;20.00;99.90;;;;;;5072657;28;20445;-85
2021/07/15 07:48:23;;;;;;;9.23;2.13;;;20.00;99.90;;;;;;5069711;28;20473;-84
2021/07/15 07:50:51;;;;;;;6.77;1.47;;;20.10;99.90;;;;;;5072019;28;20478;-84
2021/07/15 07:53:17;;;;;;;7.20;1.50;;;20.20;99.90;;;;;;5068387;28;20994;-85
2021/07/15 07:55:44;;;;;;;6.80;2.03;;;20.30;99.90;;;;;;5072912;28;20962;-84
2021/07/15 07:58:12;;;;;;;9.30;1.90;;;20.40;99.90;;;;;;5064882;28;20447;-84
2021/07/15 08:00:40;;;;;;;6.00;1.57;;;20.60;99.90;;;;;;5071800;28;20447;-84
2021/07/15 08:03:07;;;;;;;7.33;1.67;;;20.70;99.90;;;;;;5072827;28;20578;-84
2021/07/15 08:05:38;;;;;;;7.17;1.77;;;20.90;99.90;;;;;;5053643;28;20454;-84
2021/07/15 08:08:05;;;;;;;6.97;1.80;;;21.00;99.90;;;;;;5054036;28;20459;-85
2021/07/15 08:10:33;;;;;;;7.70;1.93;;;21.10;99.90;;;;;;5049798;28;20580;-84
2021/07/15 08:13:03;;;;;;;7.87;1.73;;;21.10;99.90;;;;;;5063834;28;20451;-85
2021/07/15 08:15:30;;;;;;;6.60;1.70;;;21.20;99.90;;;;;;5067274;28;20459;-85
2021/07/15 08:18:03;;;;;;;8.23;1.93;;;21.30;99.90;;;;;;5064954;28;20970;-84
2021/07/15 08:20:33;;;;;;;8.20;1.60;;;21.40;99.90;;;;;;5061410;28;20534;-85
2021/07/15 08:23:01;;;;;;;7.70;2.23;;;21.50;99.90;;;;;;5061519;28;20488;-84
2021/07/15 08:25:28;;;;;;;8.57;2.03;;;21.60;99.90;;;;;;5070469;28;20451;-85
2021/07/15 08:27:54;;;;;;;9.57;1.90;;;21.70;99.90;;;;;;5080001;28;20495;-85
2021/07/15 08:30:21;;;;;;;9.17;2.33;;;21.80;99.90;;;;;;5075091;28;20454;-86
2021/07/15 08:32:48;;;;;;;8.40;2.40;;;21.90;99.90;;;;;;5072866;28;20483;-85
2021/07/15 08:35:17;;;;;;;7.30;2.33;;;21.90;99.90;;;;;;5063947;28;20476;-84
2021/07/15 08:37:44;;;;;;;9.20;2.33;;;21.90;99.90;;;;;;5074488;28;20455;-84
2021/07/15 08:40:12;;;;;;;8.60;2.43;;;21.90;99.90;;;;;;5070735;28;20455;-85
2021/07/15 08:42:40;;;;;;;10.77;2.77;;;22.00;99.90;;;;;;5072066;28;20487;-85
2021/07/15 08:45:10;;;;;;;9.63;2.50;;;21.90;99.90;;;;;;5071493;28;20470;-84
2021/07/15 08:47:39;;;;;;;8.97;2.10;;;22.30;99.90;;;;;;5061013;28;20459;-83
2021/07/15 08:50:08;;;;;;;9.07;1.70;;;22.50;99.90;;;;;;5070758;28;20453;-85
2021/07/15 08:52:38;;;;;;;11.63;1.80;;;22.80;99.90;;;;;;5070296;28;20451;-85
2021/07/15 08:55:19;;;;;;;8.07;1.80;;;23.10;99.90;;;;;;5056952;28;20906;-85
2021/07/15 08:57:45;;;;;;;9.63;1.97;;;23.30;99.90;;;;;;5063864;28;20509;-85
2021/07/15 09:00:17;;;;;;;10.70;2.00;;;23.60;99.90;;;;;;5066664;28;20443;-87
2021/07/15 09:02:58;;;;;;;10.93;2.20;;;23.60;99.90;;;;;;5064218;28;20478;-87
2021/07/15 09:30:16;;;;;;;11.80;3.10;;;24.20;99.90;;;;;;5055565;28;20955;-88
2021/07/15 09:32:55;;;;;;;10.77;3.20;;;24.60;99.90;;;;;;5073279;28;20467;-88
2021/07/15 09:35:27;;;;;;;13.50;3.00;;;24.90;99.90;;;;;;5075639;28;20451;-87
2021/07/15 09:37:55;;;;;;;15.43;2.93;;;24.80;99.90;;;;;;5080438;28;20447;-88
2021/07/15 09:40:39;;;;;;;15.93;2.90;;;24.70;99.90;;;;;;5080691;28;20466;-85
2021/07/15 09:43:17;;;;;;;17.17;4.13;;;24.70;99.90;;;;;;5083338;28;20478;-86
2021/07/15 09:45:45;;;;;;;13.90;3.30;;;24.70;99.90;;;;;;5063565;28;20447;-86
2021/07/15 09:48:19;;;;;;;16.70;2.80;;;24.50;99.90;;;;;;5060601;28;20475;-87
2021/07/15 09:50:47;;;;;;;15.30;4.10;;;24.20;99.90;;;;;;5071387;28;20439;-86
2021/07/15 09:53:20;;;;;;;13.73;3.27;;;24.20;99.90;;;;;;5075380;28;20554;-87
2021/07/15 09:55:58;;;;;;;16.70;3.90;;;24.40;99.90;;;;;;5066923;28;20452;-87
2021/07/15 09:58:25;;;;;;;16.77;4.17;;;24.50;99.90;;;;;;5055942;28;20491;-86
2021/07/15 10:01:01;;;;;;;19.87;3.90;;;24.40;99.90;;;;;;5054615;28;20483;-87
2021/07/15 10:03:37;;;;;;;14.80;4.13;;;24.20;99.90;;;;;;5061036;28;20521;-87
2021/07/15 10:06:04;;;;;;;13.43;3.60;;;24.10;99.90;;;;;;5064934;28;20935;-87
2021/07/15 10:08:33;;;;;;;13.67;3.63;;;23.80;99.90;;;;;;5089616;28;20444;-87
2021/07/15 10:11:18;;;;;;;13.10;3.30;;;23.70;99.90;;;;;;5081655;28;20545;-87
2021/07/15 10:13:46;;;;;;;13.17;3.33;;;23.60;99.90;;;;;;5061834;28;20559;-89
2021/07/15 10:16:13;;;;;;;16.53;3.63;;;23.40;99.90;;;;;;5073347;28;20477;-88
2021/07/15 10:18:43;;;;;;;14.07;3.60;;;23.30;99.90;;;;;;5072080;28;20538;-88
2021/07/15 10:21:12;;;;;;;12.03;3.40;;;23.20;99.90;;;;;;5064663;28;20459;-88
2021/07/15 10:23:40;;;;;;;12.20;3.67;;;23.20;99.90;;;;;;5070502;28;20562;-88
2021/07/15 10:26:09;;;;;;;12.93;3.90;;;23.20;99.90;;;;;;5063760;28;20443;-88
2021/07/15 10:28:38;;;;;;;15.27;4.93;;;23.20;99.90;;;;;;5057498;28;21377;-89
2021/07/15 10:31:07;;;;;;;14.13;4.67;;;23.20;99.90;;;;;;5068560;28;21006;-89
2021/07/15 10:33:35;;;;;;;11.50;3.60;;;23.10;99.90;;;;;;5073766;28;20459;-88
2021/07/15 10:36:04;;;;;;;10.80;3.80;;;23.10;99.90;;;;;;5063322;28;20459;-88
2021/07/15 10:38:38;;;;;;;11.10;4.50;;;23.00;99.90;;;;;;5072853;28;20482;-89
2021/07/15 10:41:05;;;;;;;12.77;4.73;;;23.00;99.90;;;;;;5073006;28;20771;-89
2021/07/15 10:43:33;;;;;;;12.00;4.37;;;22.90;99.90;;;;;;5073162;28;20582;-89
2021/07/15 10:46:02;;;;;;;13.30;5.00;;;22.90;99.90;;;;;;5074713;28;20458;-89
2021/07/15 10:48:30;;;;;;;11.80;4.37;;;22.80;99.90;;;;;;5059378;28;20460;-88
2021/07/15 10:50:59;;;;;;;11.67;4.17;;;22.80;99.90;;;;;;5053476;28;20944;-89
2021/07/15 10:53:26;;;;;;;11.20;3.63;;;22.70;99.90;;;;;;5053365;28;20558;-89
2021/07/15 10:55:54;;;;;;;11.77;4.20;;;22.60;99.90;;;;;;5053105;28;20462;-89
2021/07/15 10:58:43;;;;;;;12.47;4.63;;;22.60;99.90;;;;;;5052888;28;20448;-88
2021/07/15 11:01:12;;;;;;;13.17;4.90;;;22.50;99.90;;;;;;5057759;28;21002;-88
2021/07/15 11:03:41;;;;;;;14.27;5.10;;;22.40;99.90;;;;;;5064056;28;20486;-89
2021/07/15 11:06:08;;;;;;;11.77;4.87;;;22.30;99.90;;;;;;5062299;28;20498;-88
2021/07/15 11:08:57;;;;;;;10.57;4.00;;;22.30;99.90;;;;;;5060398;28;20488;-89
2021/07/15 11:11:34;;;;;;;12.60;4.67;;;22.30;99.90;;;;;;5051569;28;20491;-89
2021/07/15 11:14:02;;;;;;;11.83;4.10;;;22.20;99.90;;;;;;5075170;28;20862;-89
2021/07/15 11:16:53;;;;;;;12.53;4.57;;;22.20;99.90;;;;;;5067248;28;20538;-89
2021/07/15 11:20:08;;;;;;;10.50;3.80;;;22.10;99.90;;;;;;5069410;28;20820;-88
2021/07/15 11:22:44;;;;;;;12.10;5.30;;;22.10;99.90;;;;;;5072572;28;20554;-88
2021/07/15 11:25:13;;;;;;;11.23;4.43;;;22.00;99.90;;;;;;5072997;28;20561;-88
2021/07/15 11:27:48;;;;;;;10.90;4.23;;;22.10;99.90;;;;;;5072034;28;20455;-88
2021/07/15 11:30:25;;;;;;;10.97;4.33;;;22.20;99.90;;;;;;5072281;28;20447;-88
2021/07/15 11:32:53;;;;;;;10.60;4.40;;;22.20;99.90;;;;;;5071533;28;20443;-88
2021/07/15 11:35:26;;;;;;;9.40;4.00;;;22.30;99.90;;;;;;5064528;28;20462;-88
2021/07/15 11:38:13;;;;;;;10.03;3.93;;;22.30;99.90;;;;;;5069180;28;20447;-88
2021/07/15 11:40:47;;;;;;;14.37;4.90;;;22.30;99.90;;;;;;5071389;28;20530;-87
2021/07/15 11:43:30;;;;;;;10.03;4.53;;;22.30;99.90;;;;;;5069684;28;20485;-88
2021/07/15 11:46:18;;;;;;;12.03;4.70;;;22.40;99.90;;;;;;5067767;28;20455;-88
2021/07/15 11:49:07;;;;;;;10.03;4.60;;;22.50;99.90;;;;;;5069229;28;20534;-89
2021/07/15 11:51:41;;;;;;;11.40;5.00;;;22.60;99.90;;;;;;5066094;28;20482;-88
2021/07/15 11:54:45;;;;;;;11.03;4.47;;;22.70;99.90;;;;;;5071108;28;20466;-88
2021/07/15 11:57:26;;;;;;;13.10;5.33;;;22.80;99.90;;;;;;5065264;28;20529;-88
2021/07/15 12:00:12;;;;;;;11.67;4.90;;;22.80;99.90;;;;;;5069619;28;20864;-88
2021/07/15 12:02:43;;;;;;;12.93;4.83;;;22.80;99.90;;;;;;5072505;28;20490;-89
2021/07/15 12:05:20;;;;;;;14.73;4.90;;;22.80;99.90;;;;;;5071944;28;20474;-88
2021/07/15 12:07:50;;;;;;;11.03;5.20;;;22.80;99.90;;;;;;5072403;28;20450;-87
2021/07/15 12:10:23;;;;;;;11.80;5.17;;;22.80;99.90;;;;;;5064805;28;20452;-90
2021/07/15 12:12:51;;;;;;;9.70;4.30;;;22.80;99.90;;;;;;5071784;28;20585;-88
2021/07/15 12:15:23;;;;;;;11.40;4.60;;;22.80;99.90;;;;;;5063917;28;20479;-87
2021/07/15 12:17:52;;;;;;;10.93;5.10;;;22.80;99.90;;;;;;5052439;28;20448;-88
2021/07/15 12:20:21;;;;;;;12.90;5.20;;;22.80;99.90;;;;;;5054199;28;20462;-88
2021/07/15 12:22:54;;;;;;;11.70;4.70;;;22.70;99.90;;;;;;5069857;28;20994;-88
2021/07/15 12:25:24;;;;;;;10.97;5.27;;;22.70;99.90;;;;;;5067947;28;20530;-88
2021/07/15 12:27:54;;;;;;;12.67;5.47;;;22.70;99.90;;;;;;5079605;28;20456;-90
2021/07/15 12:30:22;;;;;;;11.43;4.70;;;22.80;99.90;;;;;;5075456;28;20845;-92
2021/07/15 12:32:57;;;;;;;13.20;5.20;;;22.90;99.90;;;;;;5067018;28;20453;-89
2021/07/15 12:35:32;;;;;;;11.53;5.23;;;23.20;99.90;;;;;;5072061;28;20481;-90
2021/07/15 12:37:59;;;;;;;12.10;5.27;;;23.50;99.90;;;;;;5064040;28;20539;-89
2021/07/15 12:40:32;;;;;;;13.70;5.50;;;23.70;99.90;;;;;;5071068;28;20829;-89
2021/07/15 12:43:14;;;;;;;14.23;5.07;;;24.00;99.90;;;;;;5071385;28;20482;-89
2021/07/15 12:45:40;;;;;;;14.70;5.70;;;24.10;99.90;;;;;;5071850;28;20461;-89
2021/07/15 12:48:08;;;;;;;14.40;4.80;;;24.20;99.90;;;;;;5071930;28;20534;-90
2021/07/15 12:50:36;;;;;;;18.57;6.40;;;24.20;99.90;;;;;;5071408;28;20545;-90
2021/07/15 12:53:19;;;;;;;16.23;6.13;;;24.10;99.90;;;;;;5062296;28;20509;-90
2021/07/15 12:55:47;;;;;;;13.80;6.00;;;24.10;99.90;;;;;;5052017;28;20456;-90
2021/07/15 12:58:14;;;;;;;14.37;5.90;;;24.20;99.90;;;;;;5068948;28;20501;-89
2021/07/15 13:00:42;;;;;;;16.63;6.03;;;24.30;99.90;;;;;;5071111;28;20490;-89
2021/07/15 13:03:10;;;;;;;18.00;7.57;;;24.50;99.90;;;;;;5071163;28;20483;-89
2021/07/15 13:05:39;;;;;;;16.93;6.73;;;24.70;99.90;;;;;;5070498;28;20455;-89
2021/07/15 13:08:10;;;;;;;20.80;6.80;;;25.00;99.90;;;;;;5071756;28;20584;-89
2021/07/15 13:15:59;;;;;;;16.00;6.77;;;25.80;99.90;;;;;;5017688;28;20447;-87
2021/07/15 13:18:28;;;;;;;17.43;6.63;;;26.10;99.90;;;;;;5051698;28;20499;-89
2021/07/15 13:20:56;;;;;;;16.10;6.53;;;26.20;99.90;;;;;;5052662;28;20443;-88
2021/07/15 13:23:23;;;;;;;15.57;6.20;;;26.60;99.90;;;;;;5052147;28;20553;-87
2021/07/15 13:25:54;;;;;;;17.00;5.93;;;26.60;99.90;;;;;;5070799;28;20455;-87
2021/07/15 13:28:23;;;;;;;17.67;6.80;;;26.40;99.90;;;;;;5072111;28;20530;-88